createdAt,value
2023-01-02T00:01:04.081Z,14.70
2023-01-02T00:03:31.444Z,14.60
2023-01-02T00:05:58.327Z,14.70
2023-01-02T00:08:25.290Z,14.50
2023-01-02T00:10:53.195Z,14.60
2023-01-02T00:13:20.250Z,14.60
2023-01-02T00:15:47.170Z,14.70
2023-01-02T00:18:14.136Z,14.80
2023-01-02T00:20:41.016Z,14.80
2023-01-02T00:23:08.234Z,14.80
2023-01-02T00:25:35.292Z,14.80
2023-01-02T00:28:02.653Z,14.70
2023-01-02T00:30:35.796Z,14.70
2023-01-02T00:33:05.734Z,14.80
2023-01-02T00:35:32.773Z,14.80
2023-01-02T00:38:00.062Z,14.80
2023-01-02T00:40:27.220Z,14.70
2023-01-02T00:42:54.120Z,14.80
2023-01-02T00:45:21.037Z,14.70
2023-01-02T00:47:48.092Z,14.80
2023-01-02T00:50:15.159Z,14.80
2023-01-02T00:52:42.246Z,14.80
2023-01-02T00:55:09.512Z,14.80
2023-01-02T00:57:36.869Z,14.60
2023-01-02T01:00:05.999Z,14.70
2023-01-02T01:02:33.462Z,14.70
2023-01-02T01:05:00.360Z,14.70
2023-01-02T01:07:29.050Z,14.70
2023-01-02T01:09:56.173Z,14.70
2023-01-02T01:12:22.983Z,14.60
2023-01-02T01:14:49.853Z,14.60
2023-01-02T01:17:16.715Z,14.50
2023-01-02T01:19:43.653Z,14.60
2023-01-02T01:22:10.670Z,14.60
2023-01-02T01:24:37.734Z,14.60
2023-01-02T01:27:04.802Z,14.60
2023-01-02T01:29:31.814Z,14.50
2023-01-02T01:31:58.721Z,14.60
2023-01-02T01:34:25.574Z,14.70
2023-01-02T01:36:52.523Z,14.70
2023-01-02T01:39:19.479Z,14.50
2023-01-02T01:41:46.611Z,14.50
2023-01-02T01:44:50.070Z,14.50
2023-01-02T01:47:49.842Z,14.50
2023-01-02T01:50:32.539Z,14.40
2023-01-02T01:53:21.945Z,14.40
2023-01-02T01:56:03.987Z,14.40
2023-01-02T01:58:35.780Z,14.40
2023-01-02T02:01:03.481Z,14.30
2023-01-02T02:03:33.540Z,14.20
2023-01-02T02:06:03.179Z,14.30
2023-01-02T02:08:56.015Z,14.30
2023-01-02T02:11:23.303Z,14.20
2023-01-02T02:13:50.852Z,14.20
2023-01-02T02:16:17.981Z,14.30
2023-01-02T02:19:26.985Z,14.30
2023-01-02T02:22:12.266Z,14.30
2023-01-02T02:25:16.795Z,14.30
2023-01-02T02:28:17.479Z,14.30
2023-01-02T02:30:57.960Z,14.30
2023-01-02T02:33:39.998Z,14.40
2023-01-02T02:36:15.507Z,14.30
2023-01-02T02:38:58.494Z,14.30
2023-01-02T02:41:33.897Z,14.20
2023-01-02T02:44:07.119Z,14.30
2023-01-02T02:47:12.303Z,14.30
2023-01-02T02:49:51.161Z,14.20
2023-01-02T02:52:33.101Z,14.20
2023-01-02T02:55:13.029Z,14.20
2023-01-02T02:57:42.036Z,14.20
2023-01-02T03:00:13.535Z,14.20
2023-01-02T03:02:40.661Z,14.10
2023-01-02T03:05:12.284Z,14.10
2023-01-02T03:07:43.347Z,14.10
2023-01-02T03:10:34.431Z,14.20
2023-01-02T03:13:09.599Z,14.30
2023-01-02T03:15:49.652Z,14.30
2023-01-02T03:18:24.944Z,14.40
2023-01-02T03:21:12.406Z,14.50
2023-01-02T03:23:45.095Z,14.50
2023-01-02T03:26:15.685Z,14.50
2023-01-02T03:28:46.153Z,14.40
2023-01-02T03:31:18.126Z,14.50
2023-01-02T03:33:52.026Z,14.40
2023-01-02T03:36:24.672Z,14.40
2023-01-02T03:39:08.061Z,14.30
2023-01-02T03:41:42.156Z,14.20
2023-01-02T03:44:10.077Z,14.10
2023-01-02T03:46:40.181Z,13.90
2023-01-02T03:49:14.433Z,14.00
2023-01-02T03:51:41.919Z,13.80
2023-01-02T03:54:09.752Z,13.90
2023-01-02T03:56:49.274Z,13.90
2023-01-02T03:59:47.818Z,13.80
2023-01-02T04:02:48.005Z,13.70
2023-01-02T04:05:30.375Z,13.70
2023-01-02T04:08:06.114Z,13.70
2023-01-02T04:10:37.200Z,13.70
2023-01-02T04:13:11.441Z,13.60
2023-01-02T04:15:40.222Z,13.60
2023-01-02T04:18:15.265Z,13.50
2023-01-02T04:20:46.335Z,13.10
2023-01-02T04:23:18.070Z,12.90
2023-01-02T04:25:54.935Z,12.90
2023-01-02T04:28:31.445Z,12.80
2023-01-02T04:31:02.844Z,12.80
2023-01-02T04:33:31.577Z,12.60
2023-01-02T04:35:58.430Z,12.60
2023-01-02T04:38:25.343Z,12.70
2023-01-02T04:40:52.440Z,12.50
2023-01-02T04:43:21.827Z,12.50
2023-01-02T04:45:49.719Z,12.40
2023-01-02T04:48:17.620Z,12.40
2023-01-02T04:50:45.314Z,12.30
2023-01-02T04:53:12.423Z,12.40
2023-01-02T04:55:39.549Z,12.40
2023-01-02T04:58:07.255Z,12.50
2023-01-02T05:00:34.411Z,12.40
2023-01-02T05:03:05.308Z,12.40
2023-01-02T05:05:32.527Z,12.50
2023-01-02T05:07:59.851Z,12.40
2023-01-02T05:10:29.491Z,12.30
2023-01-02T05:12:59.199Z,12.30
2023-01-02T05:15:26.082Z,12.30
2023-01-02T05:17:52.911Z,12.50
2023-01-02T05:20:19.956Z,12.40
2023-01-02T05:23:05.311Z,12.30
2023-01-02T05:25:33.828Z,12.20
2023-01-02T05:28:05.577Z,12.10
2023-01-02T05:30:32.586Z,12.10
2023-01-02T05:32:59.685Z,12.20
2023-01-02T05:35:32.161Z,12.20
2023-01-02T05:37:59.606Z,12.20
2023-01-02T05:40:26.596Z,12.10
2023-01-02T05:42:53.385Z,12.10
2023-01-02T05:45:20.290Z,12.20
2023-01-02T05:47:47.441Z,12.10
2023-01-02T05:50:14.590Z,12.20
2023-01-02T05:52:45.626Z,12.00
2023-01-02T05:55:13.353Z,12.00
2023-01-02T05:57:40.330Z,12.10
2023-01-02T06:00:07.887Z,12.20
2023-01-02T06:02:35.021Z,12.10
2023-01-02T06:05:02.478Z,12.30
2023-01-02T06:07:29.541Z,12.10
2023-01-02T06:09:56.480Z,12.20
2023-01-02T06:12:23.447Z,12.10
2023-01-02T06:14:50.240Z,12.20
2023-01-02T06:17:17.091Z,12.40
2023-01-02T06:19:48.711Z,12.10
2023-01-02T06:22:19.056Z,12.00
2023-01-02T06:24:48.852Z,11.90
2023-01-02T06:27:15.684Z,12.00
2023-01-02T06:29:42.590Z,12.00
2023-01-02T06:32:09.669Z,11.90
2023-01-02T06:34:36.712Z,12.10
2023-01-02T06:37:09.473Z,12.10
2023-01-02T06:39:37.172Z,12.30
2023-01-02T06:42:04.071Z,12.30
2023-01-02T06:44:30.946Z,12.40
2023-01-02T06:46:57.868Z,12.50
2023-01-02T06:49:24.857Z,12.40
2023-01-02T06:51:51.610Z,12.30
2023-01-02T06:54:18.400Z,12.30
2023-01-02T06:56:45.292Z,12.40
2023-01-02T06:59:12.383Z,12.40
2023-01-02T07:01:39.444Z,12.40
2023-01-02T07:04:06.666Z,12.40
2023-01-02T07:06:34.860Z,12.40
2023-01-02T07:09:01.704Z,12.40
2023-01-02T07:11:28.557Z,12.40
2023-01-02T07:13:55.939Z,12.30
2023-01-02T07:16:23.768Z,12.30
2023-01-02T07:18:53.372Z,12.20
2023-01-02T07:21:20.855Z,12.30
2023-01-02T07:23:47.965Z,12.10
2023-01-02T07:26:15.019Z,12.10
2023-01-02T07:28:43.855Z,12.20
2023-01-02T07:31:16.065Z,12.30
2023-01-02T07:33:43.534Z,12.30
2023-01-02T07:36:14.512Z,12.20
2023-01-02T07:38:41.466Z,12.30
2023-01-02T07:41:16.870Z,12.30
2023-01-02T07:43:45.444Z,12.30
2023-01-02T07:46:14.299Z,12.30
2023-01-02T07:48:41.322Z,12.30
2023-01-02T07:51:09.143Z,11.90
2023-01-02T07:53:36.420Z,11.80
2023-01-02T07:56:03.396Z,11.70
2023-01-02T07:58:30.999Z,11.70
2023-01-02T08:01:05.129Z,11.60
2023-01-02T08:03:33.858Z,11.70
2023-01-02T08:06:12.673Z,11.70
2023-01-02T08:08:40.066Z,11.80
2023-01-02T08:11:08.304Z,12.00
2023-01-02T08:13:35.576Z,11.90
2023-01-02T08:16:14.435Z,11.90
2023-01-02T08:18:41.377Z,12.00
2023-01-02T08:21:08.399Z,11.90
2023-01-02T08:23:35.865Z,12.00
2023-01-02T08:26:05.754Z,12.00
2023-01-02T08:28:34.103Z,12.00
2023-01-02T08:31:01.579Z,12.20
2023-01-02T08:33:28.850Z,12.10
2023-01-02T08:35:56.622Z,12.10
2023-01-02T08:38:25.402Z,12.20
2023-01-02T08:40:52.277Z,12.20
2023-01-02T08:43:19.272Z,12.30
2023-01-02T08:45:46.408Z,12.30
2023-01-02T08:48:20.585Z,12.30
2023-01-02T08:50:51.592Z,12.30
2023-01-02T08:53:18.818Z,12.20
2023-01-02T08:55:46.009Z,12.20
2023-01-02T08:58:13.324Z,12.10
2023-01-02T09:00:40.581Z,12.00
2023-01-02T09:03:07.558Z,12.20
2023-01-02T09:05:34.952Z,12.40
2023-01-02T09:08:02.540Z,12.30
2023-01-02T09:10:29.344Z,12.20
2023-01-02T09:12:56.158Z,12.20
2023-01-02T09:15:23.012Z,12.00
2023-01-02T09:17:49.866Z,12.00
2023-01-02T09:20:16.845Z,12.10
2023-01-02T09:22:44.676Z,11.90
2023-01-02T09:25:11.584Z,12.00
2023-01-02T09:27:38.562Z,12.00
2023-01-02T09:30:05.965Z,11.80
2023-01-02T09:32:32.889Z,12.00
2023-01-02T09:34:59.781Z,12.00
2023-01-02T09:37:27.854Z,11.90
2023-01-02T09:39:54.634Z,11.70
2023-01-02T09:42:21.588Z,11.60
2023-01-02T09:44:54.194Z,11.60
2023-01-02T09:47:24.960Z,11.80
2023-01-02T09:50:00.587Z,11.90
2023-01-02T09:52:32.331Z,11.90
2023-01-02T09:55:00.162Z,11.80
2023-01-02T09:57:26.952Z,11.80
2023-01-02T10:00:12.546Z,11.80
2023-01-02T10:03:18.430Z,11.90
2023-01-02T10:05:53.133Z,11.80
2023-01-02T10:08:29.547Z,11.80
2023-01-02T10:11:18.807Z,11.80
2023-01-02T10:14:20.740Z,11.70
2023-01-02T10:16:59.485Z,11.80
2023-01-02T10:19:45.631Z,11.90
2023-01-02T10:22:20.600Z,11.80
2023-01-02T10:24:56.256Z,11.80
2023-01-02T10:27:30.045Z,11.80
2023-01-02T10:30:22.965Z,11.80
2023-01-02T10:33:09.652Z,11.80
2023-01-02T10:35:50.922Z,11.90
2023-01-02T10:38:19.943Z,12.00
2023-01-02T10:40:48.925Z,11.90
2023-01-02T10:43:16.804Z,11.90
2023-01-02T10:45:44.237Z,11.70
2023-01-02T10:48:11.661Z,11.70
2023-01-02T10:50:48.009Z,11.80
2023-01-02T10:53:33.299Z,11.90
2023-01-02T10:56:20.654Z,12.10
2023-01-02T10:58:50.024Z,12.10
2023-01-02T11:01:22.754Z,12.10
2023-01-02T11:04:10.807Z,12.20
2023-01-02T11:06:51.321Z,12.20
2023-01-02T11:09:24.123Z,12.20
2023-01-02T11:11:53.868Z,12.20
2023-01-02T11:14:32.237Z,12.20
2023-01-02T11:17:10.167Z,12.30
2023-01-02T11:19:46.465Z,12.40
2023-01-02T11:22:16.602Z,12.50
2023-01-02T11:24:59.326Z,12.40
2023-01-02T11:27:41.448Z,12.30
2023-01-02T11:30:22.643Z,12.30
2023-01-02T11:33:03.176Z,12.30
2023-01-02T11:35:46.129Z,11.80
2023-01-02T11:38:28.979Z,11.70
2023-01-02T11:41:00.946Z,11.70
2023-01-02T11:43:52.078Z,11.50
2023-01-02T11:46:29.785Z,11.50
2023-01-02T11:49:11.734Z,11.30
2023-01-02T11:51:41.080Z,11.20
2023-01-02T11:54:16.009Z,11.10
2023-01-02T11:56:47.943Z,10.90
2023-01-02T11:59:38.954Z,10.90
2023-01-02T12:02:20.898Z,10.90
2023-01-02T12:04:47.802Z,10.90
2023-01-02T12:07:42.403Z,10.80
2023-01-02T12:10:09.345Z,10.90
2023-01-02T12:13:00.352Z,11.00
2023-01-02T12:16:01.221Z,11.00
2023-01-02T12:18:55.270Z,11.00
2023-01-02T12:21:30.516Z,11.00
2023-01-02T12:24:15.727Z,11.00
2023-01-02T12:27:25.406Z,10.90
2023-01-02T12:30:09.869Z,10.90
2023-01-02T12:32:58.927Z,10.80
2023-01-02T12:35:55.198Z,10.80
2023-01-02T12:39:02.803Z,10.70
2023-01-02T12:42:09.648Z,10.80
2023-01-02T12:44:53.987Z,10.80
2023-01-02T12:47:46.990Z,10.80
2023-01-02T12:50:28.771Z,10.80
2023-01-02T12:53:23.747Z,10.90
2023-01-02T12:56:03.126Z,10.80
2023-01-02T12:58:51.163Z,10.70
2023-01-02T13:01:21.921Z,10.80
2023-01-02T13:04:03.419Z,10.80
2023-01-02T13:06:47.231Z,10.80
2023-01-02T13:09:35.735Z,10.80
2023-01-02T13:12:22.276Z,10.90
2023-01-02T13:15:07.449Z,11.10
2023-01-02T13:17:37.850Z,11.30
2023-01-02T13:20:20.407Z,11.50
2023-01-02T13:23:24.991Z,11.70
2023-01-02T13:25:59.636Z,12.00
2023-01-02T13:28:26.929Z,12.10
2023-01-02T13:33:54.806Z,12.10
2023-01-02T13:36:46.140Z,12.30
2023-01-02T13:39:20.691Z,12.60
2023-01-02T13:42:10.684Z,12.70
2023-01-02T13:44:40.577Z,12.30
2023-01-02T13:47:24.499Z,12.20
2023-01-02T13:50:18.077Z,12.20
2023-01-02T13:53:01.745Z,12.20
2023-01-02T13:55:32.609Z,12.20
2023-01-02T13:58:18.018Z,12.20
2023-01-02T14:00:54.042Z,12.20
2023-01-02T14:03:25.213Z,12.40
2023-01-02T14:06:01.095Z,12.40
2023-01-02T14:08:28.136Z,12.20
2023-01-02T14:11:07.993Z,12.40
2023-01-02T14:13:45.007Z,12.30
2023-01-02T14:16:25.178Z,12.10
2023-01-02T14:19:15.565Z,12.00
2023-01-02T14:21:53.412Z,12.10
2023-01-02T14:24:31.050Z,12.00
2023-01-02T14:27:04.635Z,12.00
2023-01-02T14:29:39.474Z,11.90
2023-01-02T14:32:18.863Z,12.00
2023-01-02T14:34:48.362Z,12.10
2023-01-02T14:37:33.201Z,12.10
2023-01-02T14:40:35.575Z,12.00
2023-01-02T14:43:27.317Z,12.30
2023-01-02T14:46:00.696Z,12.30
2023-01-02T14:48:50.346Z,12.20
2023-01-02T14:51:36.772Z,12.20
2023-01-02T14:54:20.929Z,12.30
2023-01-02T14:56:55.189Z,12.40
2023-01-02T14:59:40.007Z,12.30
2023-01-02T15:02:13.996Z,12.00
2023-01-02T15:04:50.971Z,11.90
2023-01-02T15:07:29.922Z,11.60
2023-01-02T15:09:59.655Z,11.40
2023-01-02T15:12:48.332Z,11.30
2023-01-02T15:15:17.850Z,10.80
2023-01-02T15:17:47.706Z,10.70
2023-01-02T15:20:23.800Z,10.60
2023-01-02T15:22:55.413Z,10.70
2023-01-02T15:25:41.788Z,10.60
2023-01-02T15:28:27.567Z,10.60
2023-01-02T15:31:15.059Z,10.60
2023-01-02T15:33:42.301Z,10.80
2023-01-02T15:36:16.207Z,10.70
2023-01-02T15:38:44.253Z,10.80
2023-01-02T15:41:20.752Z,10.50
2023-01-02T15:44:07.364Z,10.50
2023-01-02T15:46:34.841Z,10.40
2023-01-02T15:49:04.224Z,10.40
2023-01-02T15:51:40.934Z,10.40
2023-01-02T15:54:13.245Z,10.40
2023-01-02T15:56:41.084Z,10.40
2023-01-02T15:59:34.839Z,10.30
2023-01-02T16:02:03.222Z,10.30
2023-01-02T16:04:33.697Z,10.30
2023-01-02T16:07:22.121Z,10.30
2023-01-02T16:09:54.984Z,10.50
2023-01-02T16:12:23.501Z,10.40
2023-01-02T16:14:55.643Z,10.50
2023-01-02T16:17:27.308Z,10.50
2023-01-02T16:19:58.525Z,10.50
2023-01-02T16:22:26.079Z,10.40
2023-01-02T16:25:13.631Z,10.30
2023-01-02T16:27:52.787Z,10.50
2023-01-02T16:30:25.878Z,10.50
2023-01-02T16:32:53.213Z,10.50
2023-01-02T16:35:30.020Z,10.60
2023-01-02T16:38:21.907Z,10.40
2023-01-02T16:40:59.902Z,10.50
2023-01-02T16:43:30.573Z,10.40
2023-01-02T16:45:58.788Z,10.40
2023-01-02T16:48:28.374Z,10.40
2023-01-02T16:50:57.165Z,10.40
2023-01-02T16:53:30.918Z,10.40
2023-01-02T16:55:59.692Z,10.30
2023-01-02T16:58:26.662Z,10.30
2023-01-02T17:00:55.588Z,10.40
2023-01-02T17:03:25.946Z,10.30
2023-01-02T17:06:00.941Z,10.20
2023-01-02T17:08:32.844Z,10.30
2023-01-02T17:11:00.919Z,10.30
2023-01-02T17:13:28.854Z,10.30
2023-01-02T17:15:56.473Z,10.50
2023-01-02T17:18:23.817Z,10.60
2023-01-02T17:20:51.530Z,10.60
2023-01-02T17:23:21.445Z,10.60
2023-01-02T17:25:49.582Z,10.40
2023-01-02T17:28:16.482Z,10.30
2023-01-02T17:30:45.415Z,10.30
2023-01-02T17:33:12.807Z,10.20
2023-01-02T17:35:39.637Z,10.30
2023-01-02T17:38:07.375Z,10.30
2023-01-02T17:40:34.339Z,10.40
2023-01-02T17:43:01.253Z,10.50
2023-01-02T17:45:28.294Z,10.50
2023-01-02T17:48:03.557Z,10.40
2023-01-02T17:50:32.891Z,10.30
2023-01-02T17:52:59.990Z,10.40
2023-01-02T17:55:26.841Z,10.20
2023-01-02T17:57:53.868Z,10.20
2023-01-02T18:00:23.595Z,10.30
2023-01-02T18:02:52.620Z,10.30
2023-01-02T18:05:20.803Z,10.30
2023-01-02T18:07:47.697Z,10.40
2023-01-02T18:10:19.423Z,10.50
2023-01-02T18:12:49.091Z,10.30
2023-01-02T18:15:17.400Z,10.20
2023-01-02T18:17:44.448Z,10.30
2023-01-02T18:20:17.597Z,10.30
2023-01-02T18:22:49.661Z,10.40
2023-01-02T18:25:27.671Z,10.40
2023-01-02T18:28:21.358Z,10.30
2023-01-02T18:30:59.991Z,10.20
2023-01-02T18:33:28.163Z,10.30
2023-01-02T18:36:06.306Z,10.30
2023-01-02T18:38:37.892Z,10.30
2023-01-02T18:41:24.745Z,10.20
2023-01-02T18:43:56.510Z,9.90
2023-01-02T18:47:03.298Z,9.90
2023-01-02T18:49:27.351Z,10.00
2023-01-02T18:52:07.197Z,9.90
2023-01-02T18:54:34.738Z,10.10
2023-01-02T18:57:19.607Z,10.10
2023-01-02T18:59:48.603Z,9.90
2023-01-02T19:02:29.886Z,10.10
2023-01-02T19:04:58.081Z,10.20
2023-01-02T19:07:32.401Z,10.00
2023-01-02T19:10:14.663Z,10.00
2023-01-02T19:13:07.666Z,9.80
2023-01-02T19:15:37.006Z,9.80
2023-01-02T19:18:27.443Z,9.90
2023-01-02T19:21:23.331Z,10.00
2023-01-02T19:23:56.624Z,9.90
2023-01-02T19:26:51.007Z,9.90
2023-01-02T19:29:22.112Z,10.00
2023-01-02T19:32:02.421Z,10.10
2023-01-02T19:34:52.753Z,10.20
2023-01-02T19:37:40.605Z,10.10
2023-01-02T19:40:20.144Z,10.10
2023-01-02T19:42:53.690Z,10.00
2023-01-02T19:45:28.006Z,10.00
2023-01-02T19:47:55.266Z,9.90
2023-01-02T19:50:24.740Z,10.00
2023-01-02T19:52:51.929Z,10.00
2023-01-02T19:55:19.420Z,9.90
2023-01-02T19:57:46.926Z,9.70
2023-01-02T20:00:16.046Z,9.70
2023-01-02T20:02:45.651Z,9.50
2023-01-02T20:05:20.731Z,9.70
2023-01-02T20:07:49.481Z,9.80
2023-01-02T20:10:16.385Z,9.90
2023-01-02T20:12:43.363Z,9.90
2023-01-02T20:15:17.578Z,9.80
2023-01-02T20:17:45.691Z,9.80
2023-01-02T20:20:21.440Z,9.70
2023-01-02T20:22:51.328Z,9.70
2023-01-02T20:25:21.209Z,9.70
2023-01-02T20:27:47.996Z,9.70
2023-01-02T20:30:20.236Z,9.70
2023-01-02T20:32:50.633Z,9.60
2023-01-02T20:35:17.670Z,9.50
2023-01-02T20:37:44.812Z,9.60
2023-01-02T20:40:12.141Z,9.60
2023-01-02T20:42:39.141Z,9.50
2023-01-02T20:45:06.712Z,9.60
2023-01-02T20:47:35.491Z,9.50
2023-01-02T20:50:03.239Z,9.50
2023-01-02T20:52:30.116Z,9.60
2023-01-02T20:54:57.307Z,9.70
2023-01-02T20:57:24.548Z,9.60
2023-01-02T20:59:51.581Z,9.40
2023-01-02T21:02:19.734Z,9.50
2023-01-02T21:04:46.862Z,9.40
2023-01-02T21:07:14.007Z,9.40
2023-01-02T21:09:40.998Z,9.40
2023-01-02T21:12:28.102Z,9.50
2023-01-02T21:14:55.214Z,9.50
2023-01-02T21:17:22.051Z,9.40
2023-01-02T21:19:49.080Z,9.50
2023-01-02T21:22:16.220Z,9.40
2023-01-02T21:24:43.207Z,9.50
2023-01-02T21:27:13.241Z,9.40
2023-01-02T21:29:40.785Z,9.40
2023-01-02T21:32:07.766Z,9.50
2023-01-02T21:34:34.613Z,9.50
2023-01-02T21:37:01.602Z,9.40
2023-01-02T21:39:31.869Z,9.30
2023-01-02T21:42:17.042Z,9.30
2023-01-02T21:44:47.109Z,9.40
2023-01-02T21:47:15.526Z,9.30
2023-01-02T21:49:42.663Z,9.30
2023-01-02T21:52:09.826Z,9.30
2023-01-02T21:54:39.221Z,9.40
2023-01-02T21:57:06.157Z,9.50
2023-01-02T21:59:33.678Z,9.50
2023-01-02T22:02:03.919Z,9.50
2023-01-02T22:04:31.062Z,9.50
2023-01-02T22:07:31.056Z,9.50
2023-01-02T22:09:46.259Z,9.40
2023-01-02T22:12:13.251Z,9.20
2023-01-02T22:14:40.086Z,9.20
2023-01-02T22:17:09.568Z,9.20
2023-01-02T22:19:37.627Z,9.10
2023-01-02T22:22:05.204Z,9.10
2023-01-02T22:24:32.237Z,9.00
2023-01-02T22:27:03.817Z,9.10
2023-01-02T22:30:00.462Z,8.90
2023-01-02T22:32:19.328Z,8.90
2023-01-02T22:34:46.354Z,8.80
2023-01-02T22:37:22.308Z,8.80
2023-01-02T22:39:49.966Z,8.80
2023-01-02T22:43:03.788Z,8.70
2023-01-02T22:45:46.603Z,8.70
2023-01-02T22:48:35.239Z,8.30
2023-01-02T22:51:03.741Z,8.10
2023-01-02T22:53:35.413Z,8.00
2023-01-02T22:56:10.941Z,7.90
2023-01-02T22:58:37.974Z,8.00
2023-01-02T23:01:13.432Z,8.10
2023-01-02T23:03:43.003Z,7.80
2023-01-02T23:06:10.293Z,7.80
2023-01-02T23:08:40.060Z,7.90
2023-01-02T23:11:08.116Z,7.90
2023-01-02T23:13:36.085Z,7.90
2023-01-02T23:16:36.014Z,8.00
2023-01-02T23:19:15.376Z,7.90
2023-01-02T23:21:44.466Z,7.80
2023-01-02T23:24:13.392Z,7.80
2023-01-02T23:26:53.618Z,7.80
2023-01-02T23:29:22.030Z,8.10
2023-01-02T23:31:50.830Z,8.50
2023-01-02T23:34:20.301Z,8.70
2023-01-02T23:36:47.456Z,8.70
2023-01-02T23:39:17.284Z,8.60
2023-01-02T23:41:45.320Z,8.40
2023-01-02T23:44:13.288Z,8.30
2023-01-02T23:46:41.056Z,8.20
2023-01-02T23:49:09.265Z,8.10
2023-01-02T23:51:37.531Z,7.90
2023-01-02T23:54:05.315Z,7.80
2023-01-02T23:56:34.992Z,7.90
2023-01-02T23:59:03.746Z,7.70
